Forside
METAR-TAF:

METAR-TAF

Lufthavne :

Kuwait City, Kuwait

Breddekreds: 29-13N, længdekreds: 047-59E, højde: 55 m

Aktuelle vejr

Denne rapport blev lavet for 16 minutter siden, kl. 16:00 UTC
Vind 4 kt fra sydøst
Temperatur 31°C
Fugtighed 40%
Tryk 1013 hPa
Sigt: 6000 m
skyfri

METAR: OKBK 161600Z 14004KT 6000 SKC 31/16 Q1013 NOSIG

Tid: 19:16 (16:16 UTC)

Vejrudsigter

Denne rapport blev lavet for 5 timer og 31 minutter siden, kl. 10:45 UTC
Foreløbig gælder fra 16 på 12 UTC til 17 på 18 UTC
Vind 10 kt fra øst
Sigt: 6000 m
Sandsynlighed 30% :
Midlertidig
fra 16 på 12 UTC til 16 på 18 UTC
Vind 10 kt fra sydsydøst med vindstød på up til 20 kt
Sigt: 3000 m
Nogle få skyer i en højde af 3000 ft, Cumulonimbus.

TAF: OKBK 161045Z 1612/1718 08010KT 6000 NSC PROB30 TEMPO 1612/1618 15010G20KT 3000 -TSRA/BLDU FEW030CB

Vejrobservationer og prognoser fra mere end 4000 lufthavne (METAR og TAF).

De gule og røde prikker repræsenterer de meteorologiske stationer.

Flyt musen over at se navnet på stationen.

Så klik over at se vejr observationer og prognoser.

At skifte det kort: Klik på de grønne knapper med et sort kors for at zoome ind; på den grønne knap med en bindestreg for at zoome ud; eller på de grønne pile for tilstødende kort.


METAR-TAF: